sensor_id;sensor_type;location;lat;lon;timestamp;P1;durP1;ratioP1;P2;durP2;ratioP2
13720;SDS011;6932;51.438;5.470;2023-07-16T00:01:43;5.67;;;2.13;;
13720;SDS011;6932;51.438;5.470;2023-07-16T00:04:09;3.10;;;1.73;;
13720;SDS011;6932;51.438;5.470;2023-07-16T00:06:35;3.83;;;2.10;;
13720;SDS011;6932;51.438;5.470;2023-07-16T00:09:01;4.00;;;2.10;;
13720;SDS011;6932;51.438;5.470;2023-07-16T00:11:26;4.07;;;1.90;;
13720;SDS011;6932;51.438;5.470;2023-07-16T00:13:53;2.80;;;1.73;;
13720;SDS011;6932;51.438;5.470;2023-07-16T00:16:18;4.40;;;1.80;;
13720;SDS011;6932;51.438;5.470;2023-07-16T00:18:44;3.67;;;1.90;;
13720;SDS011;6932;51.438;5.470;2023-07-16T00:21:10;5.30;;;2.00;;
13720;SDS011;6932;51.438;5.470;2023-07-16T00:23:36;4.90;;;1.97;;
13720;SDS011;6932;51.438;5.470;2023-07-16T00:26:02;3.17;;;1.70;;
13720;SDS011;6932;51.438;5.470;2023-07-16T00:28:28;4.23;;;2.00;;
13720;SDS011;6932;51.438;5.470;2023-07-16T00:30:55;3.07;;;1.87;;
13720;SDS011;6932;51.438;5.470;2023-07-16T00:33:20;2.37;;;1.90;;
13720;SDS011;6932;51.438;5.470;2023-07-16T00:35:49;4.60;;;1.77;;
13720;SDS011;6932;51.438;5.470;2023-07-16T00:38:19;6.07;;;2.10;;
13720;SDS011;6932;51.438;5.470;2023-07-16T00:40:48;2.97;;;1.83;;
13720;SDS011;6932;51.438;5.470;2023-07-16T00:43:14;4.63;;;2.10;;
13720;SDS011;6932;51.438;5.470;2023-07-16T00:45:40;3.97;;;2.00;;
13720;SDS011;6932;51.438;5.470;2023-07-16T00:48:09;3.90;;;2.20;;
13720;SDS011;6932;51.438;5.470;2023-07-16T00:50:36;2.97;;;2.00;;
13720;SDS011;6932;51.438;5.470;2023-07-16T00:53:06;4.63;;;2.20;;
13720;SDS011;6932;51.438;5.470;2023-07-16T00:55:33;3.23;;;1.90;;
13720;SDS011;6932;51.438;5.470;2023-07-16T00:58:03;3.90;;;2.40;;
13720;SDS011;6932;51.438;5.470;2023-07-16T01:00:31;3.13;;;1.90;;
13720;SDS011;6932;51.438;5.470;2023-07-16T01:02:58;2.83;;;1.87;;
13720;SDS011;6932;51.438;5.470;2023-07-16T01:05:29;3.80;;;2.30;;
13720;SDS011;6932;51.438;5.470;2023-07-16T01:08:10;5.03;;;2.40;;
13720;SDS011;6932;51.438;5.470;2023-07-16T01:10:39;5.07;;;2.10;;
13720;SDS011;6932;51.438;5.470;2023-07-16T01:13:06;3.20;;;2.00;;
13720;SDS011;6932;51.438;5.470;2023-07-16T01:15:32;4.13;;;1.90;;
13720;SDS011;6932;51.438;5.470;2023-07-16T01:17:58;4.20;;;1.80;;
13720;SDS011;6932;51.438;5.470;2023-07-16T01:20:24;4.67;;;1.90;;
13720;SDS011;6932;51.438;5.470;2023-07-16T01:28:27;2.53;;;1.70;;
13720;SDS011;6932;51.438;5.470;2023-07-16T01:31:19;3.10;;;1.67;;
13720;SDS011;6932;51.438;5.470;2023-07-16T01:33:47;4.87;;;2.13;;
13720;SDS011;6932;51.438;5.470;2023-07-16T01:36:17;3.83;;;1.90;;
13720;SDS011;6932;51.438;5.470;2023-07-16T01:38:44;4.43;;;2.03;;
13720;SDS011;6932;51.438;5.470;2023-07-16T01:41:11;4.27;;;1.90;;
13720;SDS011;6932;51.438;5.470;2023-07-16T01:43:37;4.70;;;2.10;;
13720;SDS011;6932;51.438;5.470;2023-07-16T01:46:02;4.23;;;1.90;;
13720;SDS011;6932;51.438;5.470;2023-07-16T01:48:34;1.93;;;1.70;;
13720;SDS011;6932;51.438;5.470;2023-07-16T01:51:02;5.07;;;1.80;;
13720;SDS011;6932;51.438;5.470;2023-07-16T01:53:29;2.80;;;1.80;;
13720;SDS011;6932;51.438;5.470;2023-07-16T01:55:56;3.93;;;1.77;;
13720;SDS011;6932;51.438;5.470;2023-07-16T01:58:23;3.00;;;1.70;;
13720;SDS011;6932;51.438;5.470;2023-07-16T02:00:51;4.63;;;1.80;;
13720;SDS011;6932;51.438;5.470;2023-07-16T02:03:17;4.03;;;2.00;;
13720;SDS011;6932;51.438;5.470;2023-07-16T02:05:43;5.50;;;1.97;;
13720;SDS011;6932;51.438;5.470;2023-07-16T02:08:09;3.97;;;1.97;;
13720;SDS011;6932;51.438;5.470;2023-07-16T02:10:34;2.53;;;1.70;;
13720;SDS011;6932;51.438;5.470;2023-07-16T02:13:00;5.80;;;2.10;;
13720;SDS011;6932;51.438;5.470;2023-07-16T02:15:26;4.37;;;1.67;;
13720;SDS011;6932;51.438;5.470;2023-07-16T02:17:52;3.70;;;1.97;;
13720;SDS011;6932;51.438;5.470;2023-07-16T02:20:17;4.83;;;1.60;;
13720;SDS011;6932;51.438;5.470;2023-07-16T02:22:43;4.70;;;2.10;;
13720;SDS011;6932;51.438;5.470;2023-07-16T02:25:09;3.33;;;1.87;;
13720;SDS011;6932;51.438;5.470;2023-07-16T02:27:35;5.87;;;2.47;;
13720;SDS011;6932;51.438;5.470;2023-07-16T02:30:00;4.53;;;2.00;;
13720;SDS011;6932;51.438;5.470;2023-07-16T02:32:26;3.07;;;1.90;;
13720;SDS011;6932;51.438;5.470;2023-07-16T02:34:52;4.17;;;1.90;;
13720;SDS011;6932;51.438;5.470;2023-07-16T02:37:18;3.83;;;2.00;;
13720;SDS011;6932;51.438;5.470;2023-07-16T02:39:44;5.77;;;2.00;;
13720;SDS011;6932;51.438;5.470;2023-07-16T02:42:12;2.97;;;1.80;;
13720;SDS011;6932;51.438;5.470;2023-07-16T02:44:38;4.93;;;2.20;;
13720;SDS011;6932;51.438;5.470;2023-07-16T02:47:08;4.30;;;2.03;;
13720;SDS011;6932;51.438;5.470;2023-07-16T02:49:34;3.87;;;1.70;;
13720;SDS011;6932;51.438;5.470;2023-07-16T02:51:59;4.80;;;1.97;;
13720;SDS011;6932;51.438;5.470;2023-07-16T02:54:25;8.03;;;2.17;;
13720;SDS011;6932;51.438;5.470;2023-07-16T02:56:51;3.70;;;2.00;;
13720;SDS011;6932;51.438;5.470;2023-07-16T02:59:17;5.97;;;1.93;;
13720;SDS011;6932;51.438;5.470;2023-07-16T03:01:42;5.33;;;2.07;;
13720;SDS011;6932;51.438;5.470;2023-07-16T03:04:08;3.93;;;1.80;;
13720;SDS011;6932;51.438;5.470;2023-07-16T03:06:34;4.73;;;2.00;;
13720;SDS011;6932;51.438;5.470;2023-07-16T03:09:00;5.37;;;2.00;;
13720;SDS011;6932;51.438;5.470;2023-07-16T03:11:26;5.00;;;2.20;;
13720;SDS011;6932;51.438;5.470;2023-07-16T03:13:52;5.47;;;2.20;;
13720;SDS011;6932;51.438;5.470;2023-07-16T03:16:17;4.13;;;2.17;;
13720;SDS011;6932;51.438;5.470;2023-07-16T03:18:44;5.20;;;2.17;;
13720;SDS011;6932;51.438;5.470;2023-07-16T03:21:10;4.97;;;2.10;;
13720;SDS011;6932;51.438;5.470;2023-07-16T03:23:36;3.73;;;2.13;;
13720;SDS011;6932;51.438;5.470;2023-07-16T03:26:02;4.17;;;2.30;;
13720;SDS011;6932;51.438;5.470;2023-07-16T03:28:28;3.73;;;2.33;;
13720;SDS011;6932;51.438;5.470;2023-07-16T03:30:54;4.40;;;2.10;;
13720;SDS011;6932;51.438;5.470;2023-07-16T03:33:20;6.47;;;2.50;;
13720;SDS011;6932;51.438;5.470;2023-07-16T03:35:46;3.83;;;2.03;;
13720;SDS011;6932;51.438;5.470;2023-07-16T03:38:13;4.13;;;1.97;;
13720;SDS011;6932;51.438;5.470;2023-07-16T03:40:41;5.10;;;2.23;;
13720;SDS011;6932;51.438;5.470;2023-07-16T03:43:12;5.27;;;2.30;;
13720;SDS011;6932;51.438;5.470;2023-07-16T03:45:39;5.20;;;2.20;;
13720;SDS011;6932;51.438;5.470;2023-07-16T03:48:05;6.43;;;2.47;;
13720;SDS011;6932;51.438;5.470;2023-07-16T03:50:31;4.93;;;2.20;;
13720;SDS011;6932;51.438;5.470;2023-07-16T03:52:56;4.63;;;2.23;;
13720;SDS011;6932;51.438;5.470;2023-07-16T03:55:22;3.67;;;2.00;;
13720;SDS011;6932;51.438;5.470;2023-07-16T03:57:48;4.60;;;2.40;;
13720;SDS011;6932;51.438;5.470;2023-07-16T04:00:14;3.70;;;2.27;;
13720;SDS011;6932;51.438;5.470;2023-07-16T04:02:39;4.13;;;2.40;;
13720;SDS011;6932;51.438;5.470;2023-07-16T04:05:06;4.70;;;2.30;;
13720;SDS011;6932;51.438;5.470;2023-07-16T04:07:32;4.50;;;2.50;;
13720;SDS011;6932;51.438;5.470;2023-07-16T04:09:58;5.80;;;2.23;;
13720;SDS011;6932;51.438;5.470;2023-07-16T04:12:23;5.63;;;2.50;;
13720;SDS011;6932;51.438;5.470;2023-07-16T04:14:54;5.37;;;2.77;;
13720;SDS011;6932;51.438;5.470;2023-07-16T04:17:22;5.77;;;2.40;;
13720;SDS011;6932;51.438;5.470;2023-07-16T04:19:48;6.63;;;3.07;;
13720;SDS011;6932;51.438;5.470;2023-07-16T04:22:14;4.43;;;2.50;;
13720;SDS011;6932;51.438;5.470;2023-07-16T04:24:40;5.73;;;2.70;;
13720;SDS011;6932;51.438;5.470;2023-07-16T04:27:06;4.33;;;2.53;;
13720;SDS011;6932;51.438;5.470;2023-07-16T04:29:31;5.37;;;2.67;;
13720;SDS011;6932;51.438;5.470;2023-07-16T04:31:57;7.13;;;2.60;;
13720;SDS011;6932;51.438;5.470;2023-07-16T04:34:23;6.93;;;2.70;;
13720;SDS011;6932;51.438;5.470;2023-07-16T04:36:49;6.27;;;2.63;;
13720;SDS011;6932;51.438;5.470;2023-07-16T04:39:15;6.97;;;2.80;;
13720;SDS011;6932;51.438;5.470;2023-07-16T04:41:40;8.13;;;3.07;;
13720;SDS011;6932;51.438;5.470;2023-07-16T04:44:06;8.43;;;2.97;;
13720;SDS011;6932;51.438;5.470;2023-07-16T04:46:32;6.50;;;2.80;;
13720;SDS011;6932;51.438;5.470;2023-07-16T04:48:58;6.40;;;2.63;;
13720;SDS011;6932;51.438;5.470;2023-07-16T04:51:24;8.03;;;2.77;;
13720;SDS011;6932;51.438;5.470;2023-07-16T04:53:50;5.93;;;2.90;;
13720;SDS011;6932;51.438;5.470;2023-07-16T04:56:16;7.20;;;3.00;;
13720;SDS011;6932;51.438;5.470;2023-07-16T04:58:42;5.00;;;2.90;;
13720;SDS011;6932;51.438;5.470;2023-07-16T05:01:08;5.50;;;2.80;;
13720;SDS011;6932;51.438;5.470;2023-07-16T05:03:35;6.00;;;2.50;;
13720;SDS011;6932;51.438;5.470;2023-07-16T05:06:01;6.03;;;2.80;;
13720;SDS011;6932;51.438;5.470;2023-07-16T05:08:28;7.00;;;2.83;;
13720;SDS011;6932;51.438;5.470;2023-07-16T05:10:54;7.17;;;3.03;;
13720;SDS011;6932;51.438;5.470;2023-07-16T05:13:20;8.63;;;3.00;;
13720;SDS011;6932;51.438;5.470;2023-07-16T05:15:46;6.87;;;3.23;;
13720;SDS011;6932;51.438;5.470;2023-07-16T05:18:12;6.83;;;3.10;;
13720;SDS011;6932;51.438;5.470;2023-07-16T05:20:37;5.53;;;2.90;;
13720;SDS011;6932;51.438;5.470;2023-07-16T05:23:04;6.30;;;2.83;;
13720;SDS011;6932;51.438;5.470;2023-07-16T05:25:29;6.50;;;3.00;;
13720;SDS011;6932;51.438;5.470;2023-07-16T05:27:55;6.73;;;2.73;;
13720;SDS011;6932;51.438;5.470;2023-07-16T05:30:21;6.60;;;2.90;;
13720;SDS011;6932;51.438;5.470;2023-07-16T05:32:47;6.90;;;3.20;;
13720;SDS011;6932;51.438;5.470;2023-07-16T05:35:13;8.33;;;2.93;;
13720;SDS011;6932;51.438;5.470;2023-07-16T05:37:39;4.67;;;2.60;;
13720;SDS011;6932;51.438;5.470;2023-07-16T05:40:05;6.93;;;2.90;;
13720;SDS011;6932;51.438;5.470;2023-07-16T05:42:33;6.80;;;3.43;;
13720;SDS011;6932;51.438;5.470;2023-07-16T05:45:00;6.27;;;3.07;;
13720;SDS011;6932;51.438;5.470;2023-07-16T05:47:25;7.33;;;3.33;;
13720;SDS011;6932;51.438;5.470;2023-07-16T05:49:51;5.77;;;3.07;;
13720;SDS011;6932;51.438;5.470;2023-07-16T05:52:17;6.83;;;3.10;;
13720;SDS011;6932;51.438;5.470;2023-07-16T05:54:43;9.10;;;3.47;;
13720;SDS011;6932;51.438;5.470;2023-07-16T05:57:10;6.90;;;3.57;;
13720;SDS011;6932;51.438;5.470;2023-07-16T05:59:36;5.37;;;3.10;;
13720;SDS011;6932;51.438;5.470;2023-07-16T06:02:02;7.33;;;3.23;;
13720;SDS011;6932;51.438;5.470;2023-07-16T06:04:29;5.67;;;2.80;;
13720;SDS011;6932;51.438;5.470;2023-07-16T06:06:56;6.13;;;3.23;;
13720;SDS011;6932;51.438;5.470;2023-07-16T06:09:22;8.10;;;3.13;;
13720;SDS011;6932;51.438;5.470;2023-07-16T06:11:48;6.77;;;3.17;;
13720;SDS011;6932;51.438;5.470;2023-07-16T06:14:15;6.73;;;3.43;;
13720;SDS011;6932;51.438;5.470;2023-07-16T06:16:41;5.23;;;2.90;;
13720;SDS011;6932;51.438;5.470;2023-07-16T06:19:07;7.37;;;3.30;;
13720;SDS011;6932;51.438;5.470;2023-07-16T06:21:33;7.13;;;3.30;;
13720;SDS011;6932;51.438;5.470;2023-07-16T06:23:59;7.17;;;3.40;;
13720;SDS011;6932;51.438;5.470;2023-07-16T06:26:25;7.70;;;3.30;;
13720;SDS011;6932;51.438;5.470;2023-07-16T06:28:51;6.43;;;3.30;;
13720;SDS011;6932;51.438;5.470;2023-07-16T06:31:17;6.37;;;3.00;;
13720;SDS011;6932;51.438;5.470;2023-07-16T06:33:43;7.90;;;3.23;;
13720;SDS011;6932;51.438;5.470;2023-07-16T06:36:11;7.63;;;3.57;;
13720;SDS011;6932;51.438;5.470;2023-07-16T06:38:38;9.73;;;3.73;;
13720;SDS011;6932;51.438;5.470;2023-07-16T06:41:03;8.03;;;3.87;;
13720;SDS011;6932;51.438;5.470;2023-07-16T06:43:29;6.80;;;3.50;;
13720;SDS011;6932;51.438;5.470;2023-07-16T06:45:55;6.57;;;3.50;;
13720;SDS011;6932;51.438;5.470;2023-07-16T06:48:21;8.17;;;3.67;;
13720;SDS011;6932;51.438;5.470;2023-07-16T06:50:47;6.17;;;3.60;;
13720;SDS011;6932;51.438;5.470;2023-07-16T06:53:14;6.40;;;3.43;;
13720;SDS011;6932;51.438;5.470;2023-07-16T06:55:40;6.43;;;3.10;;
13720;SDS011;6932;51.438;5.470;2023-07-16T06:58:09;5.90;;;3.50;;
13720;SDS011;6932;51.438;5.470;2023-07-16T07:00:36;7.90;;;3.60;;
13720;SDS011;6932;51.438;5.470;2023-07-16T07:03:02;6.67;;;3.77;;
13720;SDS011;6932;51.438;5.470;2023-07-16T07:05:28;7.90;;;3.87;;
13720;SDS011;6932;51.438;5.470;2023-07-16T07:07:53;6.93;;;3.40;;
13720;SDS011;6932;51.438;5.470;2023-07-16T07:10:19;7.93;;;3.57;;
13720;SDS011;6932;51.438;5.470;2023-07-16T07:12:45;8.03;;;3.83;;
13720;SDS011;6932;51.438;5.470;2023-07-16T07:15:11;7.27;;;3.23;;
13720;SDS011;6932;51.438;5.470;2023-07-16T07:17:37;7.37;;;3.50;;
13720;SDS011;6932;51.438;5.470;2023-07-16T07:20:03;6.13;;;3.63;;
13720;SDS011;6932;51.438;5.470;2023-07-16T07:22:31;7.63;;;3.37;;
13720;SDS011;6932;51.438;5.470;2023-07-16T07:24:57;6.23;;;3.43;;
13720;SDS011;6932;51.438;5.470;2023-07-16T07:27:23;5.57;;;3.30;;
13720;SDS011;6932;51.438;5.470;2023-07-16T07:29:49;6.63;;;3.50;;
13720;SDS011;6932;51.438;5.470;2023-07-16T07:32:17;5.60;;;3.25;;
13720;SDS011;6932;51.438;5.470;2023-07-16T07:34:47;6.78;;;3.40;;
13720;SDS011;6932;51.438;5.470;2023-07-16T07:37:13;7.22;;;3.40;;
13720;SDS011;6932;51.438;5.470;2023-07-16T07:39:39;7.22;;;3.78;;
13720;SDS011;6932;51.438;5.470;2023-07-16T07:42:05;6.83;;;3.43;;
13720;SDS011;6932;51.438;5.470;2023-07-16T07:44:31;6.95;;;3.40;;
13720;SDS011;6932;51.438;5.470;2023-07-16T07:46:57;9.05;;;3.80;;
13720;SDS011;6932;51.438;5.470;2023-07-16T07:49:23;7.40;;;3.22;;
13720;SDS011;6932;51.438;5.470;2023-07-16T07:51:49;5.95;;;3.70;;
13720;SDS011;6932;51.438;5.470;2023-07-16T07:54:15;8.80;;;3.42;;
13720;SDS011;6932;51.438;5.470;2023-07-16T07:56:41;6.38;;;3.65;;
13720;SDS011;6932;51.438;5.470;2023-07-16T07:59:07;5.15;;;3.38;;
13720;SDS011;6932;51.438;5.470;2023-07-16T08:01:33;7.90;;;3.30;;
13720;SDS011;6932;51.438;5.470;2023-07-16T08:03:59;5.93;;;3.63;;
13720;SDS011;6932;51.438;5.470;2023-07-16T08:06:25;7.87;;;3.77;;
13720;SDS011;6932;51.438;5.470;2023-07-16T08:08:51;8.10;;;3.63;;
13720;SDS011;6932;51.438;5.470;2023-07-16T08:11:17;8.05;;;3.60;;
13720;SDS011;6932;51.438;5.470;2023-07-16T08:13:42;6.50;;;3.42;;
13720;SDS011;6932;51.438;5.470;2023-07-16T08:16:08;6.93;;;3.53;;
13720;SDS011;6932;51.438;5.470;2023-07-16T08:18:34;7.28;;;3.58;;
13720;SDS011;6932;51.438;5.470;2023-07-16T08:21:00;6.07;;;3.20;;
13720;SDS011;6932;51.438;5.470;2023-07-16T08:23:26;6.10;;;3.13;;
13720;SDS011;6932;51.438;5.470;2023-07-16T08:25:52;7.65;;;3.60;;
13720;SDS011;6932;51.438;5.470;2023-07-16T08:28:17;9.88;;;3.65;;
13720;SDS011;6932;51.438;5.470;2023-07-16T08:30:46;6.65;;;3.58;;
13720;SDS011;6932;51.438;5.470;2023-07-16T08:33:13;7.45;;;3.40;;
13720;SDS011;6932;51.438;5.470;2023-07-16T08:35:39;6.82;;;3.40;;
13720;SDS011;6932;51.438;5.470;2023-07-16T08:38:06;6.53;;;3.00;;
13720;SDS011;6932;51.438;5.470;2023-07-16T08:40:35;5.03;;;3.17;;
13720;SDS011;6932;51.438;5.470;2023-07-16T08:43:03;7.20;;;3.30;;
13720;SDS011;6932;51.438;5.470;2023-07-16T08:45:32;8.18;;;3.25;;
13720;SDS011;6932;51.438;5.470;2023-07-16T08:48:04;7.55;;;3.33;;
13720;SDS011;6932;51.438;5.470;2023-07-16T08:50:32;7.10;;;2.88;;
13720;SDS011;6932;51.438;5.470;2023-07-16T08:53:01;8.40;;;3.50;;
13720;SDS011;6932;51.438;5.470;2023-07-16T08:55:30;5.40;;;3.20;;
13720;SDS011;6932;51.438;5.470;2023-07-16T08:57:57;9.30;;;3.30;;
13720;SDS011;6932;51.438;5.470;2023-07-16T09:00:24;7.28;;;3.40;;
13720;SDS011;6932;51.438;5.470;2023-07-16T09:02:52;5.20;;;2.85;;
13720;SDS011;6932;51.438;5.470;2023-07-16T09:05:21;6.70;;;3.47;;
13720;SDS011;6932;51.438;5.470;2023-07-16T09:07:48;7.30;;;3.00;;
13720;SDS011;6932;51.438;5.470;2023-07-16T09:10:15;7.80;;;3.20;;
13720;SDS011;6932;51.438;5.470;2023-07-16T09:12:42;4.22;;;2.90;;
13720;SDS011;6932;51.438;5.470;2023-07-16T09:15:11;6.28;;;3.10;;
13720;SDS011;6932;51.438;5.470;2023-07-16T09:17:41;5.13;;;2.90;;
13720;SDS011;6932;51.438;5.470;2023-07-16T09:20:07;4.95;;;2.70;;
13720;SDS011;6932;51.438;5.470;2023-07-16T09:22:34;6.88;;;3.20;;
13720;SDS011;6932;51.438;5.470;2023-07-16T09:25:00;5.65;;;2.80;;
13720;SDS011;6932;51.438;5.470;2023-07-16T09:27:30;5.15;;;2.85;;
13720;SDS011;6932;51.438;5.470;2023-07-16T09:29:56;6.20;;;2.88;;
13720;SDS011;6932;51.438;5.470;2023-07-16T09:32:36;5.65;;;2.95;;
13720;SDS011;6932;51.438;5.470;2023-07-16T09:35:10;4.75;;;2.83;;
13720;SDS011;6932;51.438;5.470;2023-07-16T09:37:37;5.72;;;2.58;;
13720;SDS011;6932;51.438;5.470;2023-07-16T09:40:05;6.43;;;2.63;;
13720;SDS011;6932;51.438;5.470;2023-07-16T09:42:41;5.15;;;2.65;;
13720;SDS011;6932;51.438;5.470;2023-07-16T09:45:13;2.90;;;2.50;;
13720;SDS011;6932;51.438;5.470;2023-07-16T09:47:44;5.22;;;2.58;;
13720;SDS011;6932;51.438;5.470;2023-07-16T09:50:10;4.25;;;2.30;;
13720;SDS011;6932;51.438;5.470;2023-07-16T09:52:36;4.50;;;2.38;;
13720;SDS011;6932;51.438;5.470;2023-07-16T09:55:05;5.68;;;2.83;;
13720;SDS011;6932;51.438;5.470;2023-07-16T09:57:35;5.32;;;2.50;;
13720;SDS011;6932;51.438;5.470;2023-07-16T10:00:06;4.15;;;2.15;;
13720;SDS011;6932;51.438;5.470;2023-07-16T10:02:39;4.38;;;2.50;;
13720;SDS011;6932;51.438;5.470;2023-07-16T10:05:15;4.90;;;2.60;;
13720;SDS011;6932;51.438;5.470;2023-07-16T10:07:43;5.45;;;2.83;;
13720;SDS011;6932;51.438;5.470;2023-07-16T10:10:16;6.90;;;2.92;;
13720;SDS011;6932;51.438;5.470;2023-07-16T10:12:43;4.13;;;2.17;;
13720;SDS011;6932;51.438;5.470;2023-07-16T10:15:24;4.15;;;2.50;;
13720;SDS011;6932;51.438;5.470;2023-07-16T10:17:52;4.03;;;2.50;;
13720;SDS011;6932;51.438;5.470;2023-07-16T10:20:27;6.05;;;2.80;;
13720;SDS011;6932;51.438;5.470;2023-07-16T10:23:12;6.80;;;2.92;;
13720;SDS011;6932;51.438;5.470;2023-07-16T10:25:39;5.65;;;3.03;;
13720;SDS011;6932;51.438;5.470;2023-07-16T10:28:22;4.88;;;2.53;;
13720;SDS011;6932;51.438;5.470;2023-07-16T10:30:49;5.75;;;2.60;;
13720;SDS011;6932;51.438;5.470;2023-07-16T10:33:15;5.28;;;2.60;;
13720;SDS011;6932;51.438;5.470;2023-07-16T10:35:41;5.80;;;2.50;;
13720;SDS011;6932;51.438;5.470;2023-07-16T10:38:07;4.85;;;2.70;;
13720;SDS011;6932;51.438;5.470;2023-07-16T10:40:38;5.03;;;2.53;;
13720;SDS011;6932;51.438;5.470;2023-07-16T10:43:09;6.47;;;3.00;;
13720;SDS011;6932;51.438;5.470;2023-07-16T10:45:36;4.57;;;2.88;;
13720;SDS011;6932;51.438;5.470;2023-07-16T10:48:02;5.85;;;2.72;;
13720;SDS011;6932;51.438;5.470;2023-07-16T10:50:31;5.75;;;2.85;;
13720;SDS011;6932;51.438;5.470;2023-07-16T10:52:59;5.78;;;3.00;;
13720;SDS011;6932;51.438;5.470;2023-07-16T10:55:26;4.93;;;2.70;;
13720;SDS011;6932;51.438;5.470;2023-07-16T10:57:54;5.65;;;2.90;;
13720;SDS011;6932;51.438;5.470;2023-07-16T11:00:21;5.03;;;2.70;;
13720;SDS011;6932;51.438;5.470;2023-07-16T11:02:51;7.03;;;2.83;;
13720;SDS011;6932;51.438;5.470;2023-07-16T11:05:17;5.43;;;2.88;;
13720;SDS011;6932;51.438;5.470;2023-07-16T11:07:47;4.95;;;2.60;;
13720;SDS011;6932;51.438;5.470;2023-07-16T11:10:17;4.85;;;2.83;;
13720;SDS011;6932;51.438;5.470;2023-07-16T11:12:43;5.72;;;2.65;;
13720;SDS011;6932;51.438;5.470;2023-07-16T11:15:10;7.68;;;3.15;;
13720;SDS011;6932;51.438;5.470;2023-07-16T11:17:39;4.57;;;2.78;;
13720;SDS011;6932;51.438;5.470;2023-07-16T11:20:08;5.57;;;2.93;;
13720;SDS011;6932;51.438;5.470;2023-07-16T11:22:36;3.70;;;2.70;;
13720;SDS011;6932;51.438;5.470;2023-07-16T11:25:03;6.10;;;2.90;;
13720;SDS011;6932;51.438;5.470;2023-07-16T11:27:36;9.07;;;3.30;;
13720;SDS011;6932;51.438;5.470;2023-07-16T11:30:06;4.83;;;2.87;;
13720;SDS011;6932;51.438;5.470;2023-07-16T11:32:36;4.70;;;2.50;;
13720;SDS011;6932;51.438;5.470;2023-07-16T11:35:04;5.60;;;2.90;;
13720;SDS011;6932;51.438;5.470;2023-07-16T11:37:32;4.93;;;2.97;;
13720;SDS011;6932;51.438;5.470;2023-07-16T11:40:04;5.77;;;3.07;;
13720;SDS011;6932;51.438;5.470;2023-07-16T11:42:36;5.57;;;2.80;;
13720;SDS011;6932;51.438;5.470;2023-07-16T11:45:04;5.47;;;3.00;;
13720;SDS011;6932;51.438;5.470;2023-07-16T11:47:41;5.93;;;2.90;;
13720;SDS011;6932;51.438;5.470;2023-07-16T11:50:07;4.47;;;2.70;;
13720;SDS011;6932;51.438;5.470;2023-07-16T11:52:33;5.53;;;3.07;;
13720;SDS011;6932;51.438;5.470;2023-07-16T11:54:59;3.73;;;2.60;;
13720;SDS011;6932;51.438;5.470;2023-07-16T11:57:25;5.67;;;3.00;;
13720;SDS011;6932;51.438;5.470;2023-07-16T11:59:51;7.03;;;3.03;;
13720;SDS011;6932;51.438;5.470;2023-07-16T12:02:17;5.28;;;2.80;;
13720;SDS011;6932;51.438;5.470;2023-07-16T12:04:43;5.03;;;2.83;;
13720;SDS011;6932;51.438;5.470;2023-07-16T12:07:09;7.45;;;3.20;;
13720;SDS011;6932;51.438;5.470;2023-07-16T12:09:35;6.60;;;2.90;;
13720;SDS011;6932;51.438;5.470;2023-07-16T12:12:01;7.60;;;2.70;;
13720;SDS011;6932;51.438;5.470;2023-07-16T12:14:27;4.75;;;2.90;;
13720;SDS011;6932;51.438;5.470;2023-07-16T12:16:53;5.60;;;3.00;;
13720;SDS011;6932;51.438;5.470;2023-07-16T12:19:20;5.38;;;2.88;;
13720;SDS011;6932;51.438;5.470;2023-07-16T12:21:46;4.25;;;2.67;;
13720;SDS011;6932;51.438;5.470;2023-07-16T12:24:11;5.43;;;2.88;;
13720;SDS011;6932;51.438;5.470;2023-07-16T12:26:37;5.63;;;3.13;;
13720;SDS011;6932;51.438;5.470;2023-07-16T12:29:03;5.90;;;2.92;;
13720;SDS011;6932;51.438;5.470;2023-07-16T12:31:29;5.97;;;3.08;;
13720;SDS011;6932;51.438;5.470;2023-07-16T12:33:56;5.20;;;2.90;;
13720;SDS011;6932;51.438;5.470;2023-07-16T12:36:23;4.90;;;2.60;;
13720;SDS011;6932;51.438;5.470;2023-07-16T12:38:49;5.05;;;2.95;;
13720;SDS011;6932;51.438;5.470;2023-07-16T12:41:15;5.88;;;2.80;;
13720;SDS011;6932;51.438;5.470;2023-07-16T12:43:41;5.65;;;2.80;;
13720;SDS011;6932;51.438;5.470;2023-07-16T12:46:07;6.38;;;3.03;;
13720;SDS011;6932;51.438;5.470;2023-07-16T12:48:33;5.72;;;3.08;;
13720;SDS011;6932;51.438;5.470;2023-07-16T12:50:59;7.10;;;3.03;;
13720;SDS011;6932;51.438;5.470;2023-07-16T12:53:25;5.47;;;3.00;;
13720;SDS011;6932;51.438;5.470;2023-07-16T12:55:51;5.50;;;2.97;;
13720;SDS011;6932;51.438;5.470;2023-07-16T12:58:17;4.60;;;2.90;;
13720;SDS011;6932;51.438;5.470;2023-07-16T13:00:43;4.47;;;2.80;;
13720;SDS011;6932;51.438;5.470;2023-07-16T13:03:09;5.87;;;3.20;;
13720;SDS011;6932;51.438;5.470;2023-07-16T13:05:39;5.27;;;3.00;;
13720;SDS011;6932;51.438;5.470;2023-07-16T13:08:05;6.13;;;2.92;;
13720;SDS011;6932;51.438;5.470;2023-07-16T13:10:32;5.10;;;2.93;;
13720;SDS011;6932;51.438;5.470;2023-07-16T13:12:57;6.32;;;2.70;;
13720;SDS011;6932;51.438;5.470;2023-07-16T13:15:23;4.30;;;2.75;;
13720;SDS011;6932;51.438;5.470;2023-07-16T13:17:49;5.90;;;2.90;;
13720;SDS011;6932;51.438;5.470;2023-07-16T13:20:15;5.55;;;3.05;;
13720;SDS011;6932;51.438;5.470;2023-07-16T13:22:42;5.88;;;2.70;;
13720;SDS011;6932;51.438;5.470;2023-07-16T13:25:08;4.20;;;2.40;;
13720;SDS011;6932;51.438;5.470;2023-07-16T13:27:34;3.33;;;2.22;;
13720;SDS011;6932;51.438;5.470;2023-07-16T13:30:00;3.88;;;2.38;;
13720;SDS011;6932;51.438;5.470;2023-07-16T13:32:26;6.05;;;2.40;;
13720;SDS011;6932;51.438;5.470;2023-07-16T13:34:51;3.30;;;2.22;;
13720;SDS011;6932;51.438;5.470;2023-07-16T13:37:19;5.72;;;2.85;;
13720;SDS011;6932;51.438;5.470;2023-07-16T13:39:44;6.70;;;2.95;;
13720;SDS011;6932;51.438;5.470;2023-07-16T13:42:10;4.27;;;2.40;;
13720;SDS011;6932;51.438;5.470;2023-07-16T13:44:36;4.85;;;2.45;;
13720;SDS011;6932;51.438;5.470;2023-07-16T13:47:02;6.35;;;2.50;;
13720;SDS011;6932;51.438;5.470;2023-07-16T13:49:28;6.05;;;2.58;;
13720;SDS011;6932;51.438;5.470;2023-07-16T13:51:54;6.57;;;2.72;;
13720;SDS011;6932;51.438;5.470;2023-07-16T13:54:20;5.10;;;2.60;;
13720;SDS011;6932;51.438;5.470;2023-07-16T13:56:47;5.05;;;2.53;;
13720;SDS011;6932;51.438;5.470;2023-07-16T13:59:14;5.20;;;2.60;;
13720;SDS011;6932;51.438;5.470;2023-07-16T14:01:40;4.85;;;2.35;;
13720;SDS011;6932;51.438;5.470;2023-07-16T14:04:06;4.00;;;2.33;;
13720;SDS011;6932;51.438;5.470;2023-07-16T14:06:32;4.75;;;2.67;;
13720;SDS011;6932;51.438;5.470;2023-07-16T14:08:58;4.93;;;2.40;;
13720;SDS011;6932;51.438;5.470;2023-07-16T14:11:25;5.97;;;2.78;;
13720;SDS011;6932;51.438;5.470;2023-07-16T14:13:51;3.05;;;2.03;;
13720;SDS011;6932;51.438;5.470;2023-07-16T14:16:18;5.93;;;2.60;;
13720;SDS011;6932;51.438;5.470;2023-07-16T14:18:45;4.70;;;2.20;;
13720;SDS011;6932;51.438;5.470;2023-07-16T14:21:15;4.05;;;2.08;;
13720;SDS011;6932;51.438;5.470;2023-07-16T14:23:40;3.10;;;2.08;;
13720;SDS011;6932;51.438;5.470;2023-07-16T14:26:06;3.60;;;2.00;;
13720;SDS011;6932;51.438;5.470;2023-07-16T14:28:32;4.72;;;2.35;;
13720;SDS011;6932;51.438;5.470;2023-07-16T14:30:57;4.22;;;2.30;;
13720;SDS011;6932;51.438;5.470;2023-07-16T14:33:23;5.45;;;2.50;;
13720;SDS011;6932;51.438;5.470;2023-07-16T14:35:49;3.38;;;2.08;;
13720;SDS011;6932;51.438;5.470;2023-07-16T14:38:15;4.53;;;2.45;;
13720;SDS011;6932;51.438;5.470;2023-07-16T14:40:40;3.28;;;2.20;;
13720;SDS011;6932;51.438;5.470;2023-07-16T14:43:07;6.55;;;2.38;;
13720;SDS011;6932;51.438;5.470;2023-07-16T14:45:36;5.47;;;2.50;;
13720;SDS011;6932;51.438;5.470;2023-07-16T14:48:02;4.13;;;2.50;;
13720;SDS011;6932;51.438;5.470;2023-07-16T14:50:29;3.38;;;2.33;;
13720;SDS011;6932;51.438;5.470;2023-07-16T14:52:55;5.45;;;2.60;;
13720;SDS011;6932;51.438;5.470;2023-07-16T14:55:21;4.25;;;2.40;;
13720;SDS011;6932;51.438;5.470;2023-07-16T14:57:47;5.13;;;2.67;;
13720;SDS011;6932;51.438;5.470;2023-07-16T15:00:13;7.40;;;2.70;;
13720;SDS011;6932;51.438;5.470;2023-07-16T15:02:40;3.22;;;2.33;;
13720;SDS011;6932;51.438;5.470;2023-07-16T15:05:07;5.57;;;2.65;;